Time;durP1;ratioP1;P1;durP2;ratioP2;P2;SDS_P1;SDS_P2;PMS_P1;PMS_P2;Temp;Humidity;BMP_temperature;BMP_pressure;BME280_temperature;BME280_humidity;BME280_pressure;Samples;Min_cycle;Max_cycle;Signal;HPM_P1;HPM_P2
2023/09/12 00:00:19;;;;;;;;;;;28.00;61.40;;;;;;5074484;28;19916;-55
2023/09/12 00:02:44;;;;;;;;;;;28.00;61.70;;;;;;5075631;28;19916;-55
2023/09/12 00:05:10;;;;;;;;;;;28.00;61.70;;;;;;5075549;28;19920;-55
2023/09/12 00:07:36;;;;;;;;;;;28.00;61.80;;;;;;5075699;28;19908;-55
2023/09/12 00:10:02;;;;;;;;;;;28.00;61.90;;;;;;5075631;28;19962;-55
2023/09/12 00:12:27;;;;;;;;;;;28.00;62.30;;;;;;5075561;28;19913;-55
2023/09/12 00:14:53;;;;;;;;;;;27.90;62.20;;;;;;5075755;28;20332;-55
2023/09/12 00:17:18;;;;;;;;;;;27.90;62.50;;;;;;5075472;28;19909;-55
2023/09/12 00:19:44;;;;;;;;;;;27.90;63.00;;;;;;5075359;28;19964;-56
2023/09/12 00:22:09;;;;;;;;;;;27.80;63.30;;;;;;5075404;28;19919;-55
2023/09/12 00:24:35;;;;;;;;;;;27.80;63.20;;;;;;5075220;28;19908;-55
2023/09/12 00:27:00;;;;;;;;;;;27.80;63.30;;;;;;5075158;28;19920;-55
2023/09/12 00:29:26;;;;;;;;;;;27.80;63.20;;;;;;5075202;28;19908;-56
2023/09/12 00:31:51;;;;;;;;;;;27.90;63.40;;;;;;5075101;28;19909;-55
2023/09/12 00:34:17;;;;;;;;;;;27.80;63.30;;;;;;5075151;28;20257;-56
2023/09/12 00:36:42;;;;;;;;;;;27.90;63.40;;;;;;5075172;28;20261;-55
2023/09/12 00:39:08;;;;;;;;;;;27.90;62.90;;;;;;5074972;28;20384;-55
2023/09/12 00:41:33;;;;;;;;;;;27.90;63.30;;;;;;5074873;28;19913;-55
2023/09/12 00:43:59;;;;;;;;;;;27.90;63.50;;;;;;5074998;28;19962;-55
2023/09/12 00:46:24;;;;;;;;;;;27.80;63.80;;;;;;5074747;28;19955;-55
2023/09/12 00:48:50;;;;;;;;;;;27.70;63.80;;;;;;5073681;28;19909;-58
2023/09/12 00:51:15;;;;;;;;;;;27.70;63.60;;;;;;5074748;28;19920;-55
2023/09/12 00:53:41;;;;;;;;;;;27.80;63.80;;;;;;5074887;28;19982;-55
2023/09/12 00:56:06;;;;;;;;;;;27.80;64.70;;;;;;5074637;28;20361;-56
2023/09/12 00:58:31;;;;;;;;;;;27.80;63.70;;;;;;5074554;28;19958;-55
2023/09/12 01:00:58;;;;;;;;;;;27.80;64.00;;;;;;5073495;28;19956;-55
2023/09/12 01:03:24;;;;;;;;;;;27.80;63.30;;;;;;5074538;28;19912;-55
2023/09/12 01:05:49;;;;;;;;;;;27.80;63.60;;;;;;5074484;28;19918;-55
2023/09/12 01:08:15;;;;;;;;;;;27.80;63.80;;;;;;5074467;28;20280;-55
2023/09/12 01:10:46;;;;;;;;;;;27.90;63.60;;;;;;5074471;28;20007;-56
2023/09/12 01:13:12;;;;;;;;;;;27.80;63.80;;;;;;5080621;28;19908;-55
2023/09/12 01:15:37;;;;;;;;;;;27.80;64.00;;;;;;5074312;28;19924;-55
2023/09/12 01:18:03;;;;;;;;;;;27.80;63.80;;;;;;5074263;28;20257;-56
2023/09/12 01:20:32;;;;;;;;;;;27.80;64.00;;;;;;5074209;28;20336;-55
2023/09/12 01:23:09;;;;;;;;;;;27.80;63.70;;;;;;5056184;28;20360;-55
2023/09/12 01:25:40;;;;;;;;;;;27.80;64.00;;;;;;5079550;28;20376;-55
2023/09/12 01:28:05;;;;;;;;;;;27.80;63.80;;;;;;5073054;28;20285;-55
2023/09/12 01:30:31;;;;;;;;;;;27.80;64.40;;;;;;5072892;28;19943;-55
2023/09/12 01:32:56;;;;;;;;;;;27.80;63.90;;;;;;5072722;28;20007;-55
2023/09/12 01:35:22;;;;;;;;;;;27.80;63.50;;;;;;5073901;28;20022;-57
2023/09/12 01:37:47;;;;;;;;;;;27.80;63.70;;;;;;5073817;28;19931;-56
2023/09/12 01:40:15;;;;;;;;;;;27.90;64.00;;;;;;5073834;28;20006;-56
2023/09/12 01:42:42;;;;;;;;;;;27.80;64.00;;;;;;5073765;28;19909;-55
2023/09/12 01:45:09;;;;;;;;;;;27.80;63.80;;;;;;5073826;28;19908;-55
2023/09/12 01:47:34;;;;;;;;;;;27.80;63.90;;;;;;5072494;28;19912;-56
2023/09/12 01:50:00;;;;;;;;;;;27.80;63.70;;;;;;5072463;28;19908;-55
2023/09/12 01:52:25;;;;;;;;;;;27.80;63.80;;;;;;5072242;28;19921;-55
2023/09/12 01:54:51;;;;;;;;;;;27.90;63.70;;;;;;5073495;28;19936;-55
2023/09/12 01:57:17;;;;;;;;;;;27.80;64.00;;;;;;5072341;28;20273;-55
2023/09/12 01:59:42;;;;;;;;;;;27.80;63.90;;;;;;5073378;28;20333;-55
2023/09/12 02:02:08;;;;;;;;;;;27.80;63.80;;;;;;5073399;28;19909;-55
2023/09/12 02:04:33;;;;;;;;;;;27.80;64.10;;;;;;5073428;28;19913;-55
2023/09/12 02:06:58;;;;;;;;;;;27.80;64.00;;;;;;5073286;28;19974;-55
2023/09/12 02:09:24;;;;;;;;;;;27.80;64.20;;;;;;5073317;28;19999;-55
2023/09/12 02:11:50;;;;;;;;;;;27.80;64.00;;;;;;5073161;28;19909;-56
2023/09/12 02:14:17;;;;;;;;;;;27.80;63.80;;;;;;5072761;28;19959;-55
2023/09/12 02:16:43;;;;;;;;;;;27.80;64.10;;;;;;5073275;28;20292;-55
2023/09/12 02:19:08;;;;;;;;;;;27.70;64.20;;;;;;5073063;28;19987;-55
2023/09/12 02:21:34;;;;;;;;;;;27.70;63.70;;;;;;5073142;28;19920;-55
2023/09/12 02:23:59;;;;;;;;;;;27.70;64.20;;;;;;5071787;28;19909;-55
2023/09/12 02:26:25;;;;;;;;;;;27.70;64.40;;;;;;5072949;28;20357;-56
2023/09/12 02:28:50;;;;;;;;;;;27.80;64.40;;;;;;5073087;28;19915;-56
2023/09/12 02:31:15;;;;;;;;;;;27.70;64.30;;;;;;5073149;28;19916;-56
2023/09/12 02:33:41;;;;;;;;;;;27.70;64.20;;;;;;5072986;28;19920;-55
2023/09/12 02:36:07;;;;;;;;;;;27.70;64.10;;;;;;5073050;28;20006;-56
2023/09/12 02:38:32;;;;;;;;;;;27.70;64.40;;;;;;5072978;28;19912;-55
2023/09/12 02:40:58;;;;;;;;;;;27.70;64.70;;;;;;5072888;28;19912;-55
2023/09/12 02:43:23;;;;;;;;;;;27.70;64.60;;;;;;5072949;28;19912;-55
2023/09/12 02:45:49;;;;;;;;;;;27.70;64.50;;;;;;5072826;28;19938;-55
2023/09/12 02:48:14;;;;;;;;;;;27.70;64.60;;;;;;5072836;28;19976;-55
2023/09/12 02:50:40;;;;;;;;;;;27.70;64.60;;;;;;5072594;28;19916;-55
2023/09/12 02:53:06;;;;;;;;;;;27.70;64.90;;;;;;5072868;28;19955;-55
2023/09/12 02:55:31;;;;;;;;;;;27.70;64.50;;;;;;5072715;28;19999;-55
2023/09/12 02:57:57;;;;;;;;;;;27.70;64.40;;;;;;5072716;28;19947;-55
2023/09/12 03:00:22;;;;;;;;;;;27.70;64.50;;;;;;5072798;28;19908;-55
2023/09/12 03:02:48;;;;;;;;;;;27.70;64.70;;;;;;5072677;28;19961;-55
2023/09/12 03:05:13;;;;;;;;;;;27.60;64.60;;;;;;5072652;28;19916;-56
2023/09/12 03:07:39;;;;;;;;;;;27.60;64.50;;;;;;5072652;28;19915;-55
2023/09/12 03:10:04;;;;;;;;;;;27.60;64.80;;;;;;5072645;28;19919;-55
2023/09/12 03:12:30;;;;;;;;;;;27.70;65.00;;;;;;5072777;28;19909;-55
2023/09/12 03:14:56;;;;;;;;;;;27.60;65.00;;;;;;5072528;28;20011;-56
2023/09/12 03:17:21;;;;;;;;;;;27.60;65.00;;;;;;5072582;28;19943;-56
2023/09/12 03:19:47;;;;;;;;;;;27.50;64.90;;;;;;5072484;28;19955;-55
2023/09/12 03:22:12;;;;;;;;;;;27.60;65.00;;;;;;5071166;28;19923;-56
2023/09/12 03:24:38;;;;;;;;;;;27.60;64.90;;;;;;5072450;28;19915;-56
2023/09/12 03:27:03;;;;;;;;;;;27.60;65.00;;;;;;5074276;28;19959;-55
2023/09/12 03:29:29;;;;;;;;;;;27.60;65.10;;;;;;5076262;28;20360;-56
2023/09/12 03:31:54;;;;;;;;;;;27.60;65.20;;;;;;5076376;28;20365;-55
2023/09/12 03:34:19;;;;;;;;;;;27.50;65.10;;;;;;5076232;28;19931;-55
2023/09/12 03:36:45;;;;;;;;;;;27.60;65.10;;;;;;5074991;28;19918;-55
2023/09/12 03:39:13;;;;;;;;;;;27.60;65.40;;;;;;5076078;28;20364;-55
2023/09/12 03:41:38;;;;;;;;;;;27.60;65.30;;;;;;5076159;28;19908;-55
2023/09/12 03:44:04;;;;;;;;;;;27.60;65.20;;;;;;5074651;28;19912;-56
2023/09/12 03:46:30;;;;;;;;;;;27.60;65.40;;;;;;5075965;28;20010;-55
2023/09/12 03:48:55;;;;;;;;;;;27.60;65.50;;;;;;5075877;28;19987;-55
2023/09/12 03:51:20;;;;;;;;;;;27.60;65.40;;;;;;5075379;28;19982;-56
2023/09/12 03:53:47;;;;;;;;;;;27.60;65.60;;;;;;5075630;28;20373;-55
2023/09/12 03:56:14;;;;;;;;;;;27.50;65.60;;;;;;5075585;28;19969;-55
2023/09/12 03:58:40;;;;;;;;;;;27.50;65.40;;;;;;5075727;28;19915;-55
2023/09/12 04:01:05;;;;;;;;;;;27.50;65.50;;;;;;5075729;28;19908;-55
2023/09/12 04:03:31;;;;;;;;;;;27.60;65.70;;;;;;5075567;28;19912;-55
2023/09/12 04:05:56;;;;;;;;;;;27.50;65.60;;;;;;5075516;28;19914;-55
2023/09/12 04:08:22;;;;;;;;;;;27.50;65.70;;;;;;5075449;28;20011;-56
2023/09/12 04:10:47;;;;;;;;;;;27.60;65.80;;;;;;5075471;28;20360;-55
2023/09/12 04:13:13;;;;;;;;;;;27.50;65.60;;;;;;5075418;28;19913;-56
2023/09/12 04:15:38;;;;;;;;;;;27.50;65.70;;;;;;5075374;28;20036;-55
2023/09/12 04:18:04;;;;;;;;;;;27.50;65.70;;;;;;5075555;28;19913;-56
2023/09/12 04:20:29;;;;;;;;;;;27.50;65.70;;;;;;5075293;28;20400;-55
2023/09/12 04:22:55;;;;;;;;;;;27.50;65.60;;;;;;5075400;28;19916;-56
2023/09/12 04:25:20;;;;;;;;;;;27.50;65.70;;;;;;5075120;28;19913;-55
2023/09/12 04:27:46;;;;;;;;;;;27.50;65.60;;;;;;5075211;28;19908;-55
2023/09/12 04:30:11;;;;;;;;;;;27.50;65.50;;;;;;5075134;28;19908;-55
2023/09/12 04:32:37;;;;;;;;;;;27.50;65.50;;;;;;5075136;28;19923;-56
2023/09/12 04:35:03;;;;;;;;;;;27.50;65.60;;;;;;5075182;28;19915;-56
2023/09/12 04:37:28;;;;;;;;;;;27.50;65.50;;;;;;5074541;28;20368;-55
2023/09/12 04:39:54;;;;;;;;;;;27.50;66.10;;;;;;5074917;28;19966;-56
2023/09/12 04:42:19;;;;;;;;;;;27.50;66.10;;;;;;5073700;28;20334;-55
2023/09/12 04:44:45;;;;;;;;;;;27.50;66.00;;;;;;5074926;28;19909;-55
2023/09/12 04:47:10;;;;;;;;;;;27.50;66.10;;;;;;5074942;28;19912;-55
2023/09/12 04:49:36;;;;;;;;;;;27.50;66.00;;;;;;5074657;28;20372;-55
2023/09/12 04:52:01;;;;;;;;;;;27.50;66.00;;;;;;5074518;28;19974;-55
2023/09/12 04:54:27;;;;;;;;;;;27.50;65.70;;;;;;5074959;28;19963;-55
2023/09/12 04:56:53;;;;;;;;;;;27.50;66.00;;;;;;5074691;28;20017;-55
2023/09/12 04:59:18;;;;;;;;;;;27.50;65.80;;;;;;5074737;28;19909;-55
2023/09/12 05:01:44;;;;;;;;;;;27.50;66.00;;;;;;5074619;28;20010;-55
2023/09/12 05:04:09;;;;;;;;;;;27.40;65.70;;;;;;5074417;28;19955;-55
2023/09/12 05:06:35;;;;;;;;;;;27.40;66.00;;;;;;5074359;28;19912;-55
2023/09/12 05:09:00;;;;;;;;;;;27.40;66.00;;;;;;5074348;28;20019;-55
2023/09/12 05:11:25;;;;;;;;;;;27.40;66.10;;;;;;5074378;28;19908;-56
2023/09/12 05:13:51;;;;;;;;;;;27.40;66.20;;;;;;5074220;28;20384;-55
2023/09/12 05:16:16;;;;;;;;;;;27.40;66.20;;;;;;5074372;28;19912;-56
2023/09/12 05:18:42;;;;;;;;;;;27.40;66.30;;;;;;5074292;28;19909;-55
2023/09/12 05:21:07;;;;;;;;;;;27.40;66.30;;;;;;5074094;28;19908;-55
2023/09/12 05:23:33;;;;;;;;;;;27.40;66.30;;;;;;5074090;28;19909;-56
2023/09/12 05:25:58;;;;;;;;;;;27.50;66.40;;;;;;5074111;28;19912;-55
2023/09/12 05:28:24;;;;;;;;;;;27.40;66.50;;;;;;5074100;28;19920;-55
2023/09/12 05:30:49;;;;;;;;;;;27.40;66.50;;;;;;5073815;28;20098;-55
2023/09/12 05:33:15;;;;;;;;;;;27.40;66.60;;;;;;5073876;28;19916;-55
2023/09/12 05:35:40;;;;;;;;;;;27.40;66.80;;;;;;5073873;28;19920;-55
2023/09/12 05:38:06;;;;;;;;;;;27.40;66.90;;;;;;5073909;28;19909;-55
2023/09/12 05:40:31;;;;;;;;;;;27.40;66.80;;;;;;5073733;28;20450;-55
2023/09/12 05:42:56;;;;;;;;;;;27.40;66.80;;;;;;5073879;28;19909;-55
2023/09/12 05:45:23;;;;;;;;;;;27.40;67.00;;;;;;5072498;28;20015;-56
2023/09/12 05:47:48;;;;;;;;;;;27.40;67.10;;;;;;5073623;28;20475;-55
2023/09/12 05:50:14;;;;;;;;;;;27.40;67.10;;;;;;5071539;28;19951;-55
2023/09/12 05:52:41;;;;;;;;;;;27.40;66.90;;;;;;5073417;28;19927;-56
2023/09/12 05:55:07;;;;;;;;;;;27.40;66.90;;;;;;5073672;28;19958;-55
2023/09/12 05:57:33;;;;;;;;;;;27.40;66.90;;;;;;5073321;28;20315;-55
2023/09/12 05:59:59;;;;;;;;;;;27.40;66.80;;;;;;5073578;28;19946;-55
2023/09/12 06:02:25;;;;;;;;;;;27.40;67.00;;;;;;5073394;28;19935;-55
2023/09/12 06:04:50;;;;;;;;;;;27.40;66.90;;;;;;5073352;28;20340;-55
2023/09/12 06:07:16;;;;;;;;;;;27.40;66.90;;;;;;5073316;28;19913;-55
2023/09/12 06:09:41;;;;;;;;;;;27.40;67.00;;;;;;5073170;28;19965;-56
2023/09/12 06:12:07;;;;;;;;;;;27.40;66.80;;;;;;5073196;28;19908;-55
2023/09/12 06:14:32;;;;;;;;;;;27.40;66.70;;;;;;5073197;28;19908;-55
2023/09/12 06:16:58;;;;;;;;;;;27.40;66.80;;;;;;5071923;28;19967;-55
2023/09/12 06:19:23;;;;;;;;;;;27.40;66.70;;;;;;5073151;28;19912;-55
2023/09/12 06:21:49;;;;;;;;;;;27.30;66.70;;;;;;5073029;28;19909;-55
2023/09/12 06:24:20;;;;;;;;;;;27.30;66.80;;;;;;5073122;28;19915;-55
2023/09/12 06:26:46;;;;;;;;;;;27.30;67.10;;;;;;5051946;28;19913;-55
2023/09/12 06:29:11;;;;;;;;;;;27.40;67.20;;;;;;5052998;28;19909;-55
2023/09/12 06:31:37;;;;;;;;;;;27.30;67.20;;;;;;5052962;28;19919;-55
2023/09/12 06:34:02;;;;;;;;;;;27.30;67.20;;;;;;5052901;28;19909;-56
2023/09/12 06:36:29;;;;;;;;;;;27.30;67.40;;;;;;5052904;28;19909;-55
2023/09/12 06:38:58;;;;;;;;;;;27.30;67.50;;;;;;5052962;28;19916;-55
2023/09/12 06:41:23;;;;;;;;;;;27.30;67.40;;;;;;5052937;28;19999;-55
2023/09/12 06:43:49;;;;;;;;;;;27.30;67.40;;;;;;5052861;28;19955;-55
2023/09/12 06:46:14;;;;;;;;;;;27.30;67.00;;;;;;5052557;28;19916;-55
2023/09/12 06:48:39;;;;;;;;;;;27.30;67.10;;;;;;5052744;28;19908;-55
2023/09/12 06:51:05;;;;;;;;;;;27.30;67.10;;;;;;5052427;28;19921;-55
2023/09/12 06:53:31;;;;;;;;;;;27.30;67.10;;;;;;5052578;28;19909;-55
2023/09/12 06:55:57;;;;;;;;;;;27.30;67.10;;;;;;5066564;28;20371;-55
2023/09/12 06:58:22;;;;;;;;;;;27.30;67.30;;;;;;5072673;28;19993;-55
2023/09/12 07:00:48;;;;;;;;;;;27.30;67.30;;;;;;5074302;28;20329;-55
2023/09/12 07:03:14;;;;;;;;;;;27.30;67.50;;;;;;5076793;28;20319;-55
2023/09/12 07:05:40;;;;;;;;;;;27.30;67.50;;;;;;5077120;28;20405;-55
2023/09/12 07:08:06;;;;;;;;;;;27.20;67.60;;;;;;5076686;28;19908;-56
2023/09/12 07:10:32;;;;;;;;;;;27.20;67.70;;;;;;5076734;28;19916;-55
2023/09/12 07:12:57;;;;;;;;;;;27.20;67.80;;;;;;5076530;28;19916;-55
2023/09/12 07:15:23;;;;;;;;;;;27.20;67.90;;;;;;5076349;28;19916;-55
2023/09/12 07:17:48;;;;;;;;;;;27.20;67.90;;;;;;5076476;28;19908;-55
2023/09/12 07:20:15;;;;;;;;;;;27.20;67.90;;;;;;5076563;28;20007;-55
2023/09/12 07:22:40;;;;;;;;;;;27.20;67.80;;;;;;5076767;28;19915;-55
2023/09/12 07:25:06;;;;;;;;;;;27.20;67.90;;;;;;5076313;28;19909;-56
2023/09/12 07:27:32;;;;;;;;;;;27.20;68.00;;;;;;5076344;28;19909;-55
2023/09/12 07:29:57;;;;;;;;;;;27.20;68.10;;;;;;5076277;28;19908;-55
2023/09/12 07:32:24;;;;;;;;;;;27.20;68.10;;;;;;5076359;28;19909;-55
2023/09/12 07:34:49;;;;;;;;;;;27.20;68.40;;;;;;5076261;28;20388;-55
2023/09/12 07:37:15;;;;;;;;;;;27.20;68.30;;;;;;5076229;28;19951;-55
2023/09/12 07:39:40;;;;;;;;;;;27.20;68.30;;;;;;5076060;28;19922;-55
2023/09/12 07:42:06;;;;;;;;;;;27.20;68.40;;;;;;5074758;28;19958;-55
2023/09/12 07:44:31;;;;;;;;;;;27.20;68.50;;;;;;5076375;28;19954;-55
2023/09/12 07:46:57;;;;;;;;;;;27.20;68.50;;;;;;5075902;28;20388;-55
2023/09/12 07:49:24;;;;;;;;;;;27.10;69.30;;;;;;5075999;28;20364;-55
2023/09/12 07:51:49;;;;;;;;;;;27.10;68.50;;;;;;5074670;28;19920;-55
2023/09/12 07:54:17;;;;;;;;;;;27.10;68.50;;;;;;5076079;28;19909;-55
2023/09/12 07:56:43;;;;;;;;;;;27.10;68.60;;;;;;5074417;28;19999;-55
2023/09/12 07:59:09;;;;;;;;;;;27.10;68.70;;;;;;5075795;28;20376;-55
2023/09/12 08:01:35;;;;;;;;;;;27.10;68.80;;;;;;5075656;28;19917;-55
2023/09/12 08:04:00;;;;;;;;;;;27.10;69.00;;;;;;5075720;28;20391;-55
2023/09/12 08:06:26;;;;;;;;;;;27.10;69.00;;;;;;5075491;28;19920;-55
2023/09/12 08:08:52;;;;;;;;;;;27.10;69.10;;;;;;5074239;28;20010;-55
2023/09/12 08:11:18;;;;;;;;;;;27.10;69.20;;;;;;5075354;28;20003;-55
2023/09/12 08:13:45;;;;;;;;;;;27.10;69.30;;;;;;5074660;28;19909;-55
2023/09/12 08:16:11;;;;;;;;;;;27.10;69.30;;;;;;5075516;28;19912;-55
2023/09/12 08:18:36;;;;;;;;;;;27.10;69.30;;;;;;5075243;28;19959;-55
2023/09/12 08:21:02;;;;;;;;;;;27.10;69.40;;;;;;5075351;28;19909;-55
2023/09/12 08:23:27;;;;;;;;;;;27.10;69.40;;;;;;5075234;28;19912;-56
2023/09/12 08:25:53;;;;;;;;;;;27.10;69.40;;;;;;5075023;28;19956;-55
2023/09/12 08:28:18;;;;;;;;;;;27.10;69.50;;;;;;5075328;28;19908;-55
2023/09/12 08:30:45;;;;;;;;;;;27.10;69.40;;;;;;5075039;28;19913;-55
2023/09/12 08:33:10;;;;;;;;;;;27.10;69.50;;;;;;5073916;28;19935;-55
2023/09/12 08:35:36;;;;;;;;;;;27.10;69.60;;;;;;5075122;28;20313;-55
2023/09/12 08:38:01;;;;;;;;;;;27.10;69.50;;;;;;5073662;28;20365;-55
2023/09/12 08:40:29;;;;;;;;;;;27.10;69.40;;;;;;5074967;28;20364;-55
2023/09/12 08:42:54;;;;;;;;;;;27.10;69.40;;;;;;5075007;28;19913;-55
2023/09/12 08:45:20;;;;;;;;;;;27.10;69.50;;;;;;5073888;28;19909;-55
2023/09/12 08:47:49;;;;;;;;;;;27.10;69.60;;;;;;5074841;28;19931;-55
2023/09/12 08:50:16;;;;;;;;;;;27.10;69.70;;;;;;5074821;28;19920;-56
2023/09/12 08:52:42;;;;;;;;;;;27.10;69.60;;;;;;5074599;28;19920;-55
2023/09/12 08:55:07;;;;;;;;;;;27.10;69.70;;;;;;5074613;28;20365;-56
2023/09/12 08:57:33;;;;;;;;;;;27.10;69.80;;;;;;5074740;28;20395;-55
2023/09/12 08:59:59;;;;;;;;;;;27.10;69.90;;;;;;5073391;28;20002;-55
2023/09/12 09:02:24;;;;;;;;;;;27.10;70.00;;;;;;5073399;28;19956;-55
2023/09/12 09:04:50;;;;;;;;;;;27.10;70.10;;;;;;5074580;28;19915;-56
2023/09/12 09:07:15;;;;;;;;;;;27.10;70.30;;;;;;5074253;28;19986;-55
2023/09/12 09:09:41;;;;;;;;;;;27.00;70.20;;;;;;5074307;28;19912;-55
2023/09/12 09:12:07;;;;;;;;;;;27.10;70.30;;;;;;5074319;28;19908;-56
2023/09/12 09:14:32;;;;;;;;;;;27.10;70.30;;;;;;5074120;28;19908;-55
2023/09/12 09:16:58;;;;;;;;;;;27.10;70.20;;;;;;5074543;28;19928;-55
2023/09/12 09:19:23;;;;;;;;;;;27.10;70.30;;;;;;5073138;28;19908;-56
2023/09/12 09:21:48;;;;;;;;;;;27.10;70.20;;;;;;5072774;28;20301;-55
2023/09/12 09:24:17;;;;;;;;;;;27.10;70.30;;;;;;5074333;28;20360;-55
2023/09/12 09:26:46;;;;;;;;;;;27.10;70.30;;;;;;5072237;28;19932;-55
2023/09/12 09:29:16;;;;;;;;;;;27.10;70.30;;;;;;5074101;28;19931;-55
2023/09/12 09:31:42;;;;;;;;;;;27.10;70.40;;;;;;5073894;28;19993;-55
2023/09/12 09:34:11;;;;;;;;;;;27.10;70.40;;;;;;5073996;28;19944;-55
2023/09/12 09:36:40;;;;;;;;;;;27.10;70.50;;;;;;5073860;28;19970;-56
2023/09/12 09:39:05;;;;;;;;;;;27.00;70.40;;;;;;5072585;28;19927;-56
2023/09/12 09:41:31;;;;;;;;;;;27.10;70.50;;;;;;5073667;28;19908;-55
2023/09/12 09:43:56;;;;;;;;;;;27.10;70.50;;;;;;5073596;28;19916;-56
2023/09/12 09:46:21;;;;;;;;;;;27.10;70.50;;;;;;5072223;28;19958;-56
2023/09/12 09:48:50;;;;;;;;;;;27.10;70.60;;;;;;5072395;28;20357;-55
2023/09/12 09:51:16;;;;;;;;;;;27.00;70.40;;;;;;5073235;28;19920;-56
2023/09/12 09:53:43;;;;;;;;;;;27.10;70.40;;;;;;5072416;28;19962;-55
2023/09/12 09:56:12;;;;;;;;;;;27.00;70.40;;;;;;5073503;28;19908;-56
2023/09/12 09:58:56;;;;;;;;;;;27.10;70.50;;;;;;5072121;28;19998;-55
2023/09/12 10:01:28;;;;;;;;;;;27.10;70.50;;;;;;5073471;28;20326;-56
2023/09/12 10:03:56;;;;;;;;;;;27.10;70.60;;;;;;5073485;28;19962;-55
2023/09/12 10:06:22;;;;;;;;;;;27.10;70.70;;;;;;5073265;28;19913;-55
2023/09/12 10:08:50;;;;;;;;;;;27.00;70.60;;;;;;5073482;28;20368;-55
2023/09/12 10:11:16;;;;;;;;;;;27.00;70.80;;;;;;5073368;28;19912;-56
2023/09/12 10:13:46;;;;;;;;;;;27.00;70.90;;;;;;5073224;28;19958;-55
2023/09/12 10:16:12;;;;;;;;;;;27.00;70.80;;;;;;5073382;28;20383;-55
2023/09/12 10:18:39;;;;;;;;;;;27.00;71.00;;;;;;5072018;28;19908;-55
2023/09/12 10:21:07;;;;;;;;;;;27.00;70.90;;;;;;5071969;28;20376;-55
2023/09/12 10:23:41;;;;;;;;;;;27.00;71.00;;;;;;5073126;28;19915;-55
2023/09/12 10:26:09;;;;;;;;;;;27.00;71.00;;;;;;5073248;28;19912;-55
2023/09/12 10:28:35;;;;;;;;;;;27.00;70.90;;;;;;5071931;28;19912;-55
2023/09/12 10:31:00;;;;;;;;;;;27.00;70.90;;;;;;5072001;28;20288;-55
2023/09/12 10:33:31;;;;;;;;;;;27.00;70.80;;;;;;5073008;28;19908;-55
2023/09/12 10:35:57;;;;;;;;;;;27.00;70.80;;;;;;5079411;28;20286;-55
2023/09/12 10:38:22;;;;;;;;;;;27.00;70.90;;;;;;5073105;28;20007;-56
2023/09/12 10:40:48;;;;;;;;;;;27.00;70.70;;;;;;5072095;28;20007;-54
2023/09/12 10:43:14;;;;;;;;;;;27.00;70.70;;;;;;5073267;28;19951;-55
2023/09/12 10:45:39;;;;;;;;;;;27.00;70.70;;;;;;5071642;28;19913;-56
2023/09/12 10:48:05;;;;;;;;;;;27.00;70.60;;;;;;5071665;28;20014;-56
2023/09/12 10:50:30;;;;;;;;;;;27.00;70.60;;;;;;5072812;28;19996;-55
2023/09/12 10:52:56;;;;;;;;;;;27.00;70.70;;;;;;5071524;28;19912;-55
2023/09/12 10:55:21;;;;;;;;;;;27.00;70.60;;;;;;5072813;28;19908;-56
2023/09/12 10:58:03;;;;;;;;;;;27.00;70.50;;;;;;5072681;28;20007;-56
2023/09/12 11:00:29;;;;;;;;;;;27.00;70.60;;;;;;5072745;28;19916;-55
2023/09/12 11:02:54;;;;;;;;;;;26.90;70.40;;;;;;5072763;28;20295;-55
2023/09/12 11:05:29;;;;;;;;;;;26.90;70.50;;;;;;5072859;28;20352;-55
2023/09/12 11:08:00;;;;;;;;;;;26.90;70.40;;;;;;5072665;28;20003;-55
2023/09/12 11:10:26;;;;;;;;;;;27.00;70.50;;;;;;5072773;28;19909;-55
2023/09/12 11:12:52;;;;;;;;;;;26.90;70.50;;;;;;5072746;28;19923;-55
2023/09/12 11:15:18;;;;;;;;;;;26.90;70.40;;;;;;5072559;28;20046;-57
2023/09/12 11:17:44;;;;;;;;;;;26.90;70.40;;;;;;5072494;28;20001;-55
2023/09/12 11:20:10;;;;;;;;;;;26.90;70.60;;;;;;5072697;28;19998;-55
2023/09/12 11:22:41;;;;;;;;;;;26.90;70.50;;;;;;5072590;28;19908;-55
2023/09/12 11:25:15;;;;;;;;;;;26.90;70.40;;;;;;5072601;28;19915;-55
2023/09/12 11:28:04;;;;;;;;;;;26.90;70.50;;;;;;5072521;28;19913;-55
2023/09/12 11:30:34;;;;;;;;;;;26.90;70.50;;;;;;5064307;28;19909;-55
2023/09/12 11:33:02;;;;;;;;;;;26.90;70.40;;;;;;5071266;28;19956;-55
2023/09/12 11:35:28;;;;;;;;;;;26.80;70.30;;;;;;5072332;28;19913;-55
2023/09/12 11:37:56;;;;;;;;;;;26.90;70.30;;;;;;5072357;28;19908;-55
2023/09/12 11:40:23;;;;;;;;;;;26.90;70.30;;;;;;5072433;28;19908;-55
2023/09/12 11:42:49;;;;;;;;;;;26.90;70.30;;;;;;5072172;28;19908;-55
2023/09/12 11:45:17;;;;;;;;;;;26.90;70.20;;;;;;5072260;28;20004;-55
2023/09/12 11:47:42;;;;;;;;;;;26.90;70.20;;;;;;5072448;28;19912;-55
2023/09/12 11:50:08;;;;;;;;;;;26.90;70.30;;;;;;5075940;28;20418;-56
2023/09/12 11:52:38;;;;;;;;;;;26.90;70.20;;;;;;5074625;28;19951;-55
2023/09/12 11:55:03;;;;;;;;;;;26.90;70.20;;;;;;5075878;28;19923;-55
2023/09/12 11:57:29;;;;;;;;;;;26.90;70.20;;;;;;5075664;28;19909;-55
2023/09/12 11:59:54;;;;;;;;;;;26.90;70.40;;;;;;5075826;28;19920;-55
2023/09/12 12:02:20;;;;;;;;;;;26.90;70.40;;;;;;5075843;28;19908;-55
2023/09/12 12:04:45;;;;;;;;;;;26.90;70.40;;;;;;5074503;28;20329;-55
2023/09/12 12:07:11;;;;;;;;;;;26.80;70.50;;;;;;5074466;28;20357;-55
2023/09/12 12:09:36;;;;;;;;;;;26.90;70.50;;;;;;5075777;28;20292;-55
2023/09/12 12:12:11;;;;;;;;;;;26.90;70.70;;;;;;5075546;28;20353;-55
2023/09/12 12:14:38;;;;;;;;;;;26.80;70.50;;;;;;5075426;28;19908;-55
2023/09/12 12:17:08;;;;;;;;;;;26.90;70.70;;;;;;5074427;28;19909;-55
2023/09/12 12:19:34;;;;;;;;;;;26.90;70.70;;;;;;5075667;28;19915;-55
2023/09/12 12:21:59;;;;;;;;;;;26.80;70.70;;;;;;5075437;28;19908;-55
2023/09/12 12:24:25;;;;;;;;;;;26.80;70.80;;;;;;5075457;28;19916;-55
2023/09/12 12:26:51;;;;;;;;;;;26.80;70.80;;;;;;5075171;28;19913;-55
2023/09/12 12:29:16;;;;;;;;;;;26.80;70.90;;;;;;5075326;28;19938;-55
2023/09/12 12:31:42;;;;;;;;;;;26.80;70.80;;;;;;5075217;28;19909;-55
2023/09/12 12:34:07;;;;;;;;;;;26.90;70.90;;;;;;5075208;28;20288;-55
2023/09/12 12:36:32;;;;;;;;;;;26.80;70.90;;;;;;5075361;28;19975;-55
2023/09/12 12:38:58;;;;;;;;;;;26.90;71.00;;;;;;5075026;28;19908;-55
2023/09/12 12:41:25;;;;;;;;;;;26.90;71.00;;;;;;5075270;28;20406;-55
2023/09/12 12:43:51;;;;;;;;;;;26.90;70.90;;;;;;5074905;28;19955;-55
2023/09/12 12:46:19;;;;;;;;;;;26.90;70.90;;;;;;5074919;28;19913;-55
2023/09/12 12:48:45;;;;;;;;;;;26.80;70.70;;;;;;5074871;28;20063;-55
2023/09/12 12:51:19;;;;;;;;;;;26.90;70.80;;;;;;5074691;28;19920;-55
2023/09/12 12:53:49;;;;;;;;;;;26.90;70.80;;;;;;5074771;28;20117;-55
2023/09/12 12:56:15;;;;;;;;;;;26.90;70.80;;;;;;5074758;28;19909;-55
2023/09/12 12:58:58;;;;;;;;;;;26.90;70.70;;;;;;5073087;28;19943;-55
2023/09/12 13:01:24;;;;;;;;;;;26.90;70.70;;;;;;5074725;28;19931;-55
2023/09/12 13:03:50;;;;;;;;;;;26.90;70.80;;;;;;5074671;28;19908;-55
2023/09/12 13:06:16;;;;;;;;;;;26.90;71.50;;;;;;5074577;28;19928;-55
2023/09/12 13:08:42;;;;;;;;;;;26.90;70.80;;;;;;5073231;28;20007;-55
2023/09/12 13:11:08;;;;;;;;;;;26.90;70.80;;;;;;5074553;28;19948;-55
2023/09/12 13:13:34;;;;;;;;;;;26.90;70.80;;;;;;5074348;28;19908;-54
2023/09/12 13:15:59;;;;;;;;;;;26.90;70.80;;;;;;5073098;28;19999;-55
2023/09/12 13:18:25;;;;;;;;;;;26.90;70.90;;;;;;5074450;28;19999;-54
2023/09/12 13:20:50;;;;;;;;;;;26.90;71.00;;;;;;5074177;28;19916;-55
2023/09/12 13:23:15;;;;;;;;;;;26.90;71.10;;;;;;5074279;28;19953;-55
2023/09/12 13:25:41;;;;;;;;;;;26.80;71.10;;;;;;5074417;28;19951;-55
2023/09/12 13:28:07;;;;;;;;;;;26.90;71.10;;;;;;5074179;28;19921;-55
2023/09/12 13:30:33;;;;;;;;;;;26.80;71.10;;;;;;5074126;28;19915;-55
2023/09/12 13:32:58;;;;;;;;;;;26.80;71.30;;;;;;5074020;28;19908;-55
2023/09/12 13:35:24;;;;;;;;;;;26.80;71.30;;;;;;5073938;28;19909;-55
2023/09/12 13:37:49;;;;;;;;;;;26.90;71.30;;;;;;5073972;28;19954;-55
2023/09/12 13:40:15;;;;;;;;;;;26.80;71.10;;;;;;5073845;28;19919;-54
2023/09/12 13:42:40;;;;;;;;;;;26.90;71.10;;;;;;5073674;28;20102;-55
2023/09/12 13:45:06;;;;;;;;;;;26.90;71.00;;;;;;5074164;28;19915;-56
2023/09/12 13:47:33;;;;;;;;;;;26.90;71.00;;;;;;5073598;28;19999;-55
2023/09/12 13:49:58;;;;;;;;;;;26.90;71.00;;;;;;5073507;28;20310;-55
2023/09/12 13:52:25;;;;;;;;;;;26.90;71.10;;;;;;5073474;28;19999;-55
2023/09/12 13:54:51;;;;;;;;;;;26.90;71.20;;;;;;5073629;28;19908;-55
2023/09/12 13:57:16;;;;;;;;;;;26.90;71.20;;;;;;5073342;28;19916;-55
2023/09/12 13:59:42;;;;;;;;;;;26.80;71.10;;;;;;5073260;28;19908;-55
2023/09/12 14:02:07;;;;;;;;;;;26.80;71.00;;;;;;5073389;28;19958;-55
2023/09/12 14:04:33;;;;;;;;;;;26.80;71.00;;;;;;5073421;28;20403;-56
2023/09/12 14:06:58;;;;;;;;;;;26.80;71.00;;;;;;5073292;28;19923;-55
2023/09/12 14:09:24;;;;;;;;;;;26.80;71.10;;;;;;5073191;28;19909;-55